createdAt,value
2022-12-09T00:00:30.101Z,4.90
2022-12-09T04:46:28.339Z,6.00
2022-12-09T04:48:55.636Z,5.90
2022-12-09T04:51:23.476Z,5.90
2022-12-09T04:53:50.581Z,6.10
2022-12-09T04:56:19.373Z,6.10
2022-12-09T05:01:31.632Z,6.10
2022-12-09T05:03:59.671Z,5.80
2022-12-09T05:27:16.899Z,5.90
2022-12-09T05:29:44.284Z,5.90
2022-12-09T05:32:11.751Z,5.90
2022-12-09T05:34:39.556Z,5.90
2022-12-09T05:37:06.687Z,5.90
2022-12-09T05:39:33.826Z,5.90
2022-12-09T05:42:01.156Z,5.90
2022-12-09T05:44:28.497Z,5.90
2022-12-09T05:46:55.669Z,6.00
2022-12-09T05:49:23.085Z,5.90
2022-12-09T05:51:50.309Z,5.90
2022-12-09T05:54:17.443Z,5.90
2022-12-09T05:56:48.124Z,6.00
2022-12-09T05:59:16.336Z,6.00
2022-12-09T06:01:43.414Z,6.00
2022-12-09T06:04:10.547Z,5.90
2022-12-09T06:06:38.210Z,6.00
2022-12-09T06:09:11.449Z,6.10
2022-12-09T06:11:39.507Z,6.10
2022-12-09T06:14:10.330Z,6.10
2022-12-09T06:16:38.182Z,6.00
2022-12-09T06:19:05.977Z,6.00
2022-12-09T06:21:33.093Z,6.00
2022-12-09T06:24:00.076Z,6.00
2022-12-09T06:26:28.320Z,6.00
2022-12-09T06:28:56.147Z,6.00
2022-12-09T06:31:23.841Z,6.00
2022-12-09T06:33:56.344Z,6.00
2022-12-09T06:36:25.255Z,6.00
2022-12-09T06:38:52.676Z,6.00
2022-12-09T06:41:19.987Z,6.00
2022-12-09T06:43:47.511Z,6.00
2022-12-09T06:46:16.197Z,6.00
2022-12-09T06:48:43.793Z,6.00
2022-12-09T06:51:11.240Z,6.00
2022-12-09T06:53:38.561Z,5.90
2022-12-09T06:56:11.876Z,5.90
2022-12-09T06:58:39.843Z,5.90
2022-12-09T07:01:08.868Z,5.90
2022-12-09T07:03:36.531Z,5.90
2022-12-09T07:06:04.119Z,5.90
2022-12-09T07:08:31.553Z,5.80
2022-12-09T07:10:58.904Z,5.90
2022-12-09T07:13:26.466Z,5.90
2022-12-09T07:15:53.858Z,5.90
2022-12-09T07:18:21.459Z,5.90
2022-12-09T07:20:48.790Z,5.90
2022-12-09T07:23:16.095Z,6.00
2022-12-09T07:25:43.422Z,6.00
2022-12-09T07:28:10.921Z,6.00
2022-12-09T07:30:38.516Z,6.10
2022-12-09T07:33:05.721Z,6.10
2022-12-09T07:35:33.120Z,6.10
2022-12-09T07:38:00.441Z,6.10
2022-12-09T07:40:27.949Z,6.10
2022-12-09T07:42:59.083Z,6.10
2022-12-09T07:45:26.996Z,6.10
2022-12-09T07:47:54.529Z,6.10
2022-12-09T07:50:21.647Z,6.10
2022-12-09T07:52:48.641Z,6.10
2022-12-09T07:55:16.042Z,6.10
2022-12-09T07:57:43.641Z,6.10
2022-12-09T08:00:11.481Z,6.20
2022-12-09T08:02:38.612Z,6.20
2022-12-09T08:05:06.710Z,6.20
2022-12-09T08:07:36.428Z,6.20
2022-12-09T08:10:08.430Z,6.20
2022-12-09T08:12:35.565Z,6.20
2022-12-09T08:15:03.025Z,6.30
2022-12-09T08:17:30.637Z,6.30
2022-12-09T08:19:58.184Z,6.20
2022-12-09T08:22:25.454Z,6.20
2022-12-09T08:24:52.462Z,6.20
2022-12-09T08:27:19.936Z,6.20
2022-12-09T08:29:47.394Z,6.20
2022-12-09T08:32:17.043Z,6.20
2022-12-09T08:34:44.350Z,6.10
2022-12-09T08:37:11.619Z,6.00
2022-12-09T08:39:38.689Z,6.00
2022-12-09T08:42:05.700Z,6.10
2022-12-09T08:44:32.975Z,6.10
2022-12-09T08:47:00.107Z,6.10
2022-12-09T08:49:28.097Z,6.10
2022-12-09T08:51:55.472Z,6.20
2022-12-09T08:54:22.555Z,6.20
2022-12-09T08:56:51.408Z,6.20
2022-12-09T08:59:18.614Z,6.20
2022-12-09T09:01:45.732Z,6.30
2022-12-09T09:04:14.553Z,6.30
2022-12-09T09:06:42.778Z,6.30
2022-12-09T09:09:10.967Z,6.20
2022-12-09T09:11:38.843Z,6.20
2022-12-09T09:14:09.336Z,6.20
2022-12-09T09:16:38.801Z,6.30
2022-12-09T09:19:06.938Z,6.30
2022-12-09T09:21:34.725Z,6.30
2022-12-09T09:24:02.355Z,6.30
2022-12-09T09:26:29.746Z,6.30
2022-12-09T09:28:57.230Z,6.20
2022-12-09T09:31:25.041Z,6.20
2022-12-09T09:33:52.833Z,6.30
2022-12-09T09:36:23.987Z,6.30
2022-12-09T09:38:55.217Z,6.30
2022-12-09T09:41:22.561Z,6.40
2022-12-09T09:43:50.040Z,6.40
2022-12-09T09:46:20.892Z,6.40
2022-12-09T09:48:48.710Z,6.40
2022-12-09T09:51:17.745Z,6.50
2022-12-09T09:53:46.131Z,6.50
2022-12-09T09:56:15.861Z,6.60
2022-12-09T09:58:51.893Z,6.60
2022-12-09T10:01:20.026Z,6.60
2022-12-09T10:04:06.489Z,6.60
2022-12-09T10:06:41.444Z,6.60
2022-12-09T10:09:19.834Z,6.60
2022-12-09T10:11:54.886Z,6.70
2022-12-09T10:14:28.383Z,6.70
2022-12-09T10:17:10.740Z,6.70
2022-12-09T10:19:43.644Z,6.70
2022-12-09T10:22:21.458Z,6.70
2022-12-09T10:24:50.934Z,6.70
2022-12-09T10:27:25.058Z,6.70
2022-12-09T10:30:00.034Z,6.70
2022-12-09T10:32:29.720Z,6.70
2022-12-09T10:34:57.405Z,6.80
2022-12-09T10:37:25.933Z,6.80
2022-12-09T10:40:01.793Z,6.80
2022-12-09T10:42:49.866Z,6.80
2022-12-09T10:45:17.090Z,6.80
2022-12-09T10:47:49.835Z,6.80
2022-12-09T10:50:35.890Z,6.80
2022-12-09T10:53:07.816Z,6.90
2022-12-09T10:55:36.500Z,6.90
2022-12-09T10:58:29.804Z,6.90
2022-12-09T11:01:05.289Z,6.90
2022-12-09T11:03:32.610Z,6.90
2022-12-09T11:06:01.970Z,6.90
2022-12-09T11:08:30.284Z,6.90
2022-12-09T11:10:57.819Z,6.90
2022-12-09T11:13:30.268Z,7.00
2022-12-09T11:16:03.860Z,7.00
2022-12-09T11:18:34.863Z,7.00
2022-12-09T11:21:04.016Z,7.00
2022-12-09T11:23:31.667Z,7.00
2022-12-09T11:26:00.302Z,7.10
2022-12-09T11:28:27.697Z,7.00
2022-12-09T11:33:56.770Z,7.00
2022-12-09T11:36:29.766Z,7.10
2022-12-09T11:39:21.113Z,7.10
2022-12-09T11:42:12.897Z,7.10
2022-12-09T11:45:00.352Z,7.10
2022-12-09T11:50:31.281Z,7.10
2022-12-09T11:53:06.484Z,7.00
2022-12-09T11:55:34.021Z,7.00
2022-12-09T11:58:03.723Z,7.10
2022-12-09T12:00:34.374Z,7.10
2022-12-09T12:03:04.351Z,7.00
2022-12-09T12:05:32.272Z,7.00
2022-12-09T12:08:02.125Z,7.10
2022-12-09T12:10:32.961Z,7.10
2022-12-09T12:13:10.205Z,7.10
2022-12-09T12:15:37.111Z,7.10
2022-12-09T12:18:05.089Z,7.10
2022-12-09T12:20:41.583Z,7.10
2022-12-09T12:23:14.472Z,7.10
2022-12-09T12:25:47.185Z,7.10
2022-12-09T12:28:32.986Z,7.10
2022-12-09T12:30:59.926Z,7.10
2022-12-09T12:36:19.895Z,7.10
2022-12-09T12:39:02.930Z,7.10
2022-12-09T12:42:01.602Z,7.10
2022-12-09T12:45:06.060Z,7.10
2022-12-09T12:47:44.488Z,7.10
2022-12-09T12:50:11.437Z,7.00
2022-12-09T12:53:10.682Z,7.00
2022-12-09T12:55:54.445Z,7.00
2022-12-09T12:58:39.564Z,7.00
2022-12-09T13:01:09.298Z,7.10
2022-12-09T13:03:45.247Z,7.10
2022-12-09T13:06:14.510Z,7.10
2022-12-09T13:08:47.450Z,7.10
2022-12-09T13:11:19.759Z,7.10
2022-12-09T13:13:57.812Z,7.10
2022-12-09T13:16:30.549Z,7.10
2022-12-09T13:19:06.119Z,7.00
2022-12-09T13:21:33.310Z,7.00
2022-12-09T13:24:21.399Z,7.00
2022-12-09T13:26:51.503Z,7.00
2022-12-09T13:29:30.109Z,7.00
2022-12-09T13:32:19.911Z,7.00
2022-12-09T13:34:54.309Z,7.00
2022-12-09T13:37:30.252Z,7.00
2022-12-09T13:39:58.200Z,7.10
2022-12-09T13:42:47.071Z,7.20
2022-12-09T13:45:14.290Z,7.20
2022-12-09T13:47:41.244Z,7.10
2022-12-09T13:50:21.454Z,7.20
2022-12-09T13:52:50.457Z,7.20
2022-12-09T13:55:40.549Z,7.20
2022-12-09T13:58:26.266Z,7.20
2022-12-09T14:01:14.695Z,7.20
2022-12-09T14:03:56.719Z,7.20
2022-12-09T14:06:31.417Z,7.10
2022-12-09T14:09:01.596Z,7.10
2022-12-09T14:11:37.530Z,7.10
2022-12-09T14:14:22.982Z,7.00
2022-12-09T14:16:50.362Z,7.00
2022-12-09T14:19:26.855Z,7.00
2022-12-09T14:22:17.886Z,7.00
2022-12-09T14:24:44.804Z,7.00
2022-12-09T14:27:13.511Z,7.10
2022-12-09T14:29:44.138Z,7.10
2022-12-09T14:32:18.915Z,7.10
2022-12-09T14:34:47.602Z,7.20
2022-12-09T14:37:20.137Z,7.20
2022-12-09T14:39:49.507Z,7.20
2022-12-09T14:42:35.165Z,7.30
2022-12-09T14:45:11.048Z,7.40
2022-12-09T14:47:40.782Z,7.40
2022-12-09T14:50:18.604Z,7.40
2022-12-09T14:52:51.848Z,7.30
2022-12-09T14:55:19.079Z,7.20
2022-12-09T14:57:47.088Z,7.20
2022-12-09T15:00:26.262Z,7.20
2022-12-09T15:03:30.117Z,7.20
2022-12-09T15:05:40.460Z,7.20
2022-12-09T15:08:26.036Z,7.20
2022-12-09T15:10:53.084Z,7.30
2022-12-09T15:13:20.352Z,7.30
2022-12-09T15:15:47.441Z,7.30
2022-12-09T15:18:21.637Z,7.40
2022-12-09T15:20:50.225Z,7.40
2022-12-09T15:23:24.272Z,7.40
2022-12-09T15:25:52.530Z,7.30
2022-12-09T15:28:26.130Z,7.30
2022-12-09T15:30:57.142Z,7.20
2022-12-09T15:33:24.604Z,7.20
2022-12-09T15:36:08.866Z,7.20
2022-12-09T15:41:47.308Z,7.10
2022-12-09T15:44:16.182Z,7.00
2022-12-09T15:46:44.916Z,7.00
2022-12-09T15:49:14.705Z,7.00
2022-12-09T15:51:42.730Z,7.00
2022-12-09T15:54:11.692Z,7.00
2022-12-09T15:56:41.773Z,7.10
2022-12-09T15:59:13.950Z,7.20
2022-12-09T16:01:46.880Z,7.20
2022-12-09T16:04:16.580Z,7.30
2022-12-09T16:06:43.508Z,7.20
2022-12-09T16:09:11.983Z,7.20
2022-12-09T16:11:41.069Z,7.20
2022-12-09T16:14:08.808Z,7.20
2022-12-09T16:16:40.764Z,7.20
2022-12-09T16:19:23.246Z,7.20
2022-12-09T16:21:52.861Z,7.10
2022-12-09T16:24:19.875Z,7.10
2022-12-09T16:26:48.254Z,7.00
2022-12-09T16:29:20.189Z,7.00
2022-12-09T16:31:51.580Z,6.90
2022-12-09T16:34:21.965Z,6.90
2022-12-09T16:36:53.446Z,6.80
2022-12-09T16:39:23.118Z,6.80
2022-12-09T16:41:52.844Z,6.90
2022-12-09T16:44:21.411Z,6.90
2022-12-09T16:46:48.353Z,6.90
2022-12-09T16:49:15.407Z,7.00
2022-12-09T16:51:42.333Z,7.10
2022-12-09T16:54:20.186Z,7.00
2022-12-09T16:56:47.685Z,6.90
2022-12-09T16:59:14.588Z,6.90
2022-12-09T17:01:41.909Z,7.00
2022-12-09T17:04:13.823Z,7.00
2022-12-09T17:06:40.761Z,7.00
2022-12-09T17:09:07.682Z,7.00
2022-12-09T17:11:34.745Z,6.90
2022-12-09T17:14:01.748Z,6.90
2022-12-09T17:16:28.750Z,7.00
2022-12-09T17:18:55.765Z,7.00
2022-12-09T17:21:22.655Z,7.00
2022-12-09T17:23:49.643Z,7.00
2022-12-09T17:26:17.493Z,7.00
2022-12-09T17:28:44.737Z,7.00
2022-12-09T17:31:12.922Z,7.10
2022-12-09T17:33:40.002Z,7.10
2022-12-09T17:36:07.495Z,7.10
2022-12-09T17:38:34.639Z,7.10
2022-12-09T17:41:05.232Z,7.10
2022-12-09T17:43:32.111Z,7.10
2022-12-09T17:45:59.869Z,7.20
2022-12-09T17:48:27.950Z,7.10
2022-12-09T17:50:55.278Z,7.20
2022-12-09T17:53:22.640Z,7.20
2022-12-09T17:55:49.523Z,7.20
2022-12-09T17:58:16.659Z,7.20
2022-12-09T18:00:43.675Z,7.20
2022-12-09T18:03:17.691Z,7.30
2022-12-09T18:05:44.957Z,7.30
2022-12-09T18:08:11.948Z,7.30
2022-12-09T18:10:39.112Z,7.20
2022-12-09T18:13:06.074Z,7.20
2022-12-09T18:15:35.907Z,7.20
2022-12-09T18:18:02.983Z,7.20
2022-12-09T18:20:29.986Z,7.20
2022-12-09T18:22:56.922Z,7.20
2022-12-09T18:25:23.919Z,7.20
2022-12-09T18:27:50.872Z,7.20
2022-12-09T18:30:17.884Z,7.10
2022-12-09T18:32:44.821Z,7.20
2022-12-09T18:35:11.714Z,7.20
2022-12-09T18:37:38.618Z,7.20
2022-12-09T18:40:06.122Z,7.20
2022-12-09T18:42:33.214Z,7.20
2022-12-09T18:45:00.120Z,7.20
2022-12-09T18:47:27.017Z,7.10
2022-12-09T18:49:53.875Z,7.10
2022-12-09T18:52:20.815Z,7.10
2022-12-09T18:54:47.740Z,7.10
2022-12-09T18:57:15.326Z,7.20
2022-12-09T18:59:42.321Z,7.20
2022-12-09T19:02:09.868Z,7.10
2022-12-09T19:04:37.181Z,7.10
2022-12-09T19:07:04.110Z,7.10
2022-12-09T19:09:34.289Z,7.10
2022-12-09T19:12:30.003Z,7.10
2022-12-09T19:14:51.647Z,7.20
2022-12-09T19:17:18.872Z,7.10
2022-12-09T19:19:47.242Z,7.10
2022-12-09T19:22:14.590Z,7.10
2022-12-09T19:24:43.452Z,7.10
2022-12-09T19:27:10.490Z,7.10
2022-12-09T19:29:37.490Z,7.10
2022-12-09T19:32:13.951Z,7.10
2022-12-09T19:34:50.720Z,7.10
2022-12-09T19:37:17.588Z,7.00
2022-12-09T19:39:46.519Z,7.00
2022-12-09T19:42:14.004Z,7.00
2022-12-09T19:47:27.823Z,7.00
2022-12-09T19:49:54.711Z,7.00
2022-12-09T19:52:21.653Z,7.10
2022-12-09T19:54:48.542Z,7.10
2022-12-09T19:57:15.436Z,7.00
2022-12-09T19:59:42.417Z,7.00
2022-12-09T20:02:11.941Z,7.00
2022-12-09T20:04:48.643Z,7.00
2022-12-09T20:07:16.959Z,7.00
2022-12-09T20:09:43.945Z,7.00
2022-12-09T20:12:12.344Z,7.10
2022-12-09T20:14:39.679Z,7.00
2022-12-09T20:17:07.729Z,7.10
2022-12-09T20:19:35.858Z,7.10
2022-12-09T20:22:02.864Z,7.10
2022-12-09T20:24:30.325Z,7.00
2022-12-09T20:26:57.460Z,6.90
2022-12-09T20:29:24.425Z,6.80
2022-12-09T20:31:52.785Z,6.80
2022-12-09T20:34:19.778Z,6.80
2022-12-09T20:36:46.797Z,6.80
2022-12-09T20:39:17.464Z,6.80
2022-12-09T20:41:44.595Z,6.80
2022-12-09T20:44:12.183Z,6.80
2022-12-09T20:46:39.847Z,6.80
2022-12-09T20:49:06.893Z,6.80
2022-12-09T20:51:35.190Z,6.90
2022-12-09T20:54:02.386Z,6.90
2022-12-09T20:56:29.878Z,7.00
2022-12-09T20:58:57.385Z,7.00
2022-12-09T21:01:26.160Z,7.00
2022-12-09T21:03:53.714Z,7.00
2022-12-09T21:06:21.371Z,7.00
2022-12-09T21:08:48.654Z,6.90
2022-12-09T21:11:17.625Z,6.90
2022-12-09T21:13:48.593Z,6.90
2022-12-09T21:16:22.454Z,6.90
2022-12-09T21:18:50.002Z,6.90
2022-12-09T21:21:17.948Z,6.90
2022-12-09T21:23:44.951Z,6.90
2022-12-09T21:26:13.503Z,6.90
2022-12-09T21:28:40.992Z,6.90
2022-12-09T21:31:07.966Z,7.00
2022-12-09T21:33:35.169Z,7.00
2022-12-09T21:36:04.562Z,7.00
2022-12-09T21:38:31.477Z,7.00
2022-12-09T21:41:01.494Z,7.00
2022-12-09T21:43:28.426Z,7.00
2022-12-09T21:45:55.375Z,6.90
2022-12-09T21:48:22.341Z,7.00
2022-12-09T21:50:55.928Z,7.00
2022-12-09T21:53:22.914Z,6.90
2022-12-09T21:55:50.213Z,6.90
2022-12-09T21:58:17.204Z,7.00
2022-12-09T22:00:44.153Z,6.90
2022-12-09T22:03:11.302Z,6.90
2022-12-09T22:05:38.241Z,6.90
2022-12-09T22:08:05.238Z,6.90
2022-12-09T22:10:35.569Z,7.00
2022-12-09T22:13:02.488Z,7.00
2022-12-09T22:15:29.915Z,7.00
2022-12-09T22:17:57.245Z,7.00
2022-12-09T22:21:00.844Z,7.00
2022-12-09T22:23:11.374Z,7.00
2022-12-09T22:25:38.909Z,7.00
2022-12-09T22:28:05.944Z,7.00
2022-12-09T22:30:35.355Z,7.00
2022-12-09T22:33:02.424Z,7.00
2022-12-09T22:35:29.302Z,7.00
2022-12-09T22:37:59.136Z,7.10
2022-12-09T22:40:26.330Z,7.10
2022-12-09T22:42:53.222Z,7.10
2022-12-09T22:45:20.106Z,7.10
2022-12-09T22:47:46.973Z,7.00
2022-12-09T22:50:13.858Z,7.00
2022-12-09T22:52:40.727Z,7.00
2022-12-09T22:55:07.878Z,7.00
2022-12-09T22:57:34.881Z,6.90
2022-12-09T23:00:01.819Z,6.90
2022-12-09T23:02:28.903Z,6.90
2022-12-09T23:04:55.953Z,6.80
2022-12-09T23:07:22.880Z,6.80
2022-12-09T23:09:50.190Z,6.80
2022-12-09T23:12:17.109Z,6.80
2022-12-09T23:14:44.023Z,6.80
2022-12-09T23:17:11.601Z,6.80
2022-12-09T23:19:38.508Z,6.80
2022-12-09T23:22:05.448Z,6.80
2022-12-09T23:24:32.384Z,6.80
2022-12-09T23:26:59.348Z,6.80
2022-12-09T23:29:26.277Z,6.80
2022-12-09T23:31:53.198Z,6.80
2022-12-09T23:34:20.358Z,6.80
2022-12-09T23:36:47.339Z,6.80
2022-12-09T23:39:16.651Z,6.80
2022-12-09T23:41:44.043Z,6.80
2022-12-09T23:44:11.979Z,6.60
2022-12-09T23:46:39.129Z,6.90
2022-12-09T23:49:07.430Z,6.90
2022-12-09T23:51:35.272Z,7.00
2022-12-09T23:54:03.413Z,7.00
2022-12-09T23:56:32.425Z,7.00
2022-12-09T23:59:00.589Z,7.00
